createdAt,value
2023-01-26T00:01:34.021Z,126.07
2023-01-26T00:04:13.724Z,135.20
2023-01-26T00:06:46.891Z,125.45
2023-01-26T00:09:21.947Z,128.88
2023-01-26T00:11:53.068Z,139.95
2023-01-26T00:14:23.264Z,110.95
2023-01-26T00:16:59.372Z,121.35
2023-01-26T00:19:31.174Z,142.70
2023-01-26T00:22:02.730Z,153.55
2023-01-26T00:24:33.181Z,148.13
2023-01-26T00:27:03.219Z,119.25
2023-01-26T00:29:33.721Z,147.90
2023-01-26T00:32:04.306Z,140.85
2023-01-26T00:34:34.688Z,117.03
2023-01-26T00:37:05.088Z,88.53
2023-01-26T00:39:43.089Z,103.75
2023-01-26T00:42:17.664Z,115.78
2023-01-26T00:44:48.779Z,112.43
2023-01-26T00:47:21.505Z,120.43
2023-01-26T00:49:53.759Z,97.30
2023-01-26T00:52:24.021Z,114.25
2023-01-26T00:54:54.003Z,113.20
2023-01-26T00:57:24.339Z,122.15
2023-01-26T00:59:54.366Z,138.05
2023-01-26T01:02:27.445Z,112.50
2023-01-26T01:04:58.245Z,115.68
2023-01-26T01:07:29.088Z,112.25
2023-01-26T01:10:02.421Z,130.10
2023-01-26T01:12:32.802Z,102.53
2023-01-26T01:15:03.824Z,107.40
2023-01-26T01:17:35.630Z,71.05
2023-01-26T01:20:08.580Z,86.20
2023-01-26T01:22:39.563Z,86.13
2023-01-26T01:25:11.086Z,98.18
2023-01-26T01:27:41.666Z,112.47
2023-01-26T01:30:14.046Z,127.57
2023-01-26T01:33:23.985Z,120.50
2023-01-26T01:36:05.401Z,116.35
2023-01-26T01:41:43.781Z,105.03
2023-01-26T01:44:23.605Z,85.43
2023-01-26T01:46:59.022Z,83.93
2023-01-26T01:49:35.508Z,89.20
2023-01-26T01:52:22.955Z,149.23
2023-01-26T01:55:13.126Z,174.30
2023-01-26T01:57:56.469Z,211.35
2023-01-26T02:00:36.256Z,184.32
2023-01-26T02:03:22.919Z,197.25
2023-01-26T02:06:37.227Z,135.90
2023-01-26T02:09:37.581Z,83.55
2023-01-26T02:12:11.993Z,69.18
2023-01-26T02:14:43.826Z,76.18
2023-01-26T02:17:14.388Z,118.40
2023-01-26T02:20:13.544Z,140.02
2023-01-26T02:23:02.638Z,113.57
2023-01-26T02:25:51.466Z,186.38
2023-01-26T02:28:31.064Z,173.55
2023-01-26T02:33:35.362Z,160.25
2023-01-26T02:36:09.129Z,200.68
2023-01-26T02:39:07.391Z,208.77
2023-01-26T02:41:55.929Z,188.70
2023-01-26T02:44:27.977Z,220.88
2023-01-26T02:47:01.223Z,213.68
2023-01-26T02:49:55.822Z,173.85
2023-01-26T02:52:35.385Z,169.25
2023-01-26T02:55:27.379Z,153.23
2023-01-26T02:58:00.575Z,157.70
2023-01-26T03:00:39.086Z,124.50
2023-01-26T03:03:21.166Z,84.85
2023-01-26T03:05:54.263Z,73.72
2023-01-26T03:08:24.438Z,99.65
2023-01-26T03:10:54.616Z,169.35
2023-01-26T03:13:25.157Z,173.93
2023-01-26T03:15:55.903Z,99.63
2023-01-26T03:18:43.953Z,97.43
2023-01-26T03:21:36.090Z,84.13
2023-01-26T03:24:25.846Z,88.75
2023-01-26T03:27:15.461Z,94.63
2023-01-26T03:29:46.336Z,163.05
2023-01-26T03:32:17.283Z,201.73
2023-01-26T03:34:47.821Z,205.27
2023-01-26T03:37:23.340Z,202.10
2023-01-26T03:40:21.161Z,212.55
2023-01-26T03:43:11.553Z,164.38
2023-01-26T03:46:00.867Z,144.00
2023-01-26T03:48:52.160Z,148.93
2023-01-26T03:51:40.400Z,131.63
2023-01-26T03:54:29.124Z,124.72
2023-01-26T03:56:59.316Z,166.00
2023-01-26T03:59:41.870Z,207.65
2023-01-26T04:02:34.258Z,166.60
2023-01-26T04:05:23.878Z,133.02
2023-01-26T04:08:25.995Z,105.63
2023-01-26T04:11:04.621Z,93.03
2023-01-26T04:13:53.207Z,111.57
2023-01-26T04:16:50.172Z,137.32
2023-01-26T04:19:38.464Z,107.40
2023-01-26T04:22:09.863Z,81.72
2023-01-26T04:24:40.206Z,72.80
2023-01-26T04:27:10.390Z,111.00
2023-01-26T04:29:43.478Z,117.20
2023-01-26T04:32:13.842Z,83.80
2023-01-26T04:34:43.960Z,67.35
2023-01-26T04:37:22.145Z,57.10
2023-01-26T04:39:54.343Z,71.43
2023-01-26T04:42:25.856Z,116.20
2023-01-26T04:44:57.144Z,150.70
2023-01-26T04:47:29.321Z,140.55
2023-01-26T04:50:00.030Z,163.90
2023-01-26T04:52:30.252Z,164.07
2023-01-26T04:55:01.180Z,153.10
2023-01-26T04:57:33.951Z,143.65
2023-01-26T05:00:06.671Z,154.50
2023-01-26T05:02:36.989Z,170.43
2023-01-26T05:05:07.257Z,183.25
2023-01-26T05:07:37.368Z,179.60
2023-01-26T05:10:07.818Z,196.82
2023-01-26T05:12:56.167Z,167.32
2023-01-26T05:15:43.369Z,205.07
2023-01-26T05:18:26.869Z,221.70
2023-01-26T05:21:07.049Z,210.55
2023-01-26T05:23:42.322Z,171.63
2023-01-26T05:26:12.560Z,139.70
2023-01-26T05:28:52.859Z,130.82
2023-01-26T05:31:23.163Z,167.73
2023-01-26T05:33:53.418Z,185.13
2023-01-26T05:36:26.068Z,146.40
2023-01-26T05:38:56.496Z,125.35
2023-01-26T05:41:28.792Z,132.88
2023-01-26T05:44:17.264Z,150.63
2023-01-26T05:47:09.849Z,146.32
2023-01-26T05:49:44.053Z,102.35
2023-01-26T05:52:21.238Z,65.22
2023-01-26T05:54:52.709Z,57.90
2023-01-26T05:57:22.910Z,36.20
2023-01-26T05:59:57.500Z,72.43
2023-01-26T06:02:30.776Z,179.50
2023-01-26T06:05:00.926Z,172.32
2023-01-26T06:07:31.016Z,162.18
2023-01-26T06:10:13.060Z,153.23
2023-01-26T06:13:09.437Z,154.18
2023-01-26T06:15:54.419Z,124.85
2023-01-26T06:18:28.585Z,125.32
2023-01-26T06:21:03.120Z,108.47
2023-01-26T06:23:33.544Z,119.22
2023-01-26T06:26:05.250Z,120.50
2023-01-26T06:28:37.340Z,88.18
2023-01-26T06:31:09.334Z,79.85
2023-01-26T06:33:40.836Z,77.13
2023-01-26T06:36:14.243Z,103.85
2023-01-26T06:38:50.584Z,73.90
2023-01-26T06:41:21.268Z,75.07
2023-01-26T06:43:52.935Z,79.88
2023-01-26T06:46:23.414Z,64.00
2023-01-26T06:48:55.743Z,74.80
2023-01-26T06:51:46.871Z,84.88
2023-01-26T06:54:17.347Z,74.18
2023-01-26T06:57:16.423Z,72.30
2023-01-26T07:00:16.167Z,51.13
2023-01-26T07:03:04.432Z,76.45
2023-01-26T07:05:34.806Z,69.32
2023-01-26T07:08:07.617Z,58.75
2023-01-26T07:10:39.072Z,61.45
2023-01-26T07:13:09.559Z,65.82
2023-01-26T07:15:39.485Z,57.55
2023-01-26T07:18:10.026Z,51.35
2023-01-26T07:20:39.987Z,58.85
2023-01-26T07:23:10.117Z,66.28
2023-01-26T07:25:40.010Z,70.90
2023-01-26T07:28:11.983Z,68.80
2023-01-26T07:30:42.063Z,64.35
2023-01-26T07:33:12.133Z,79.90
2023-01-26T07:35:42.348Z,99.55
2023-01-26T07:38:12.374Z,83.00
2023-01-26T07:40:42.502Z,75.22
2023-01-26T07:43:12.413Z,61.83
2023-01-26T07:45:56.675Z,58.45
2023-01-26T07:48:26.926Z,59.58
2023-01-26T07:50:59.278Z,60.72
2023-01-26T07:53:31.353Z,67.13
2023-01-26T07:56:27.503Z,66.38
2023-01-26T07:58:58.210Z,69.97
2023-01-26T08:01:28.125Z,58.45
2023-01-26T08:03:58.656Z,84.50
2023-01-26T08:06:28.552Z,103.72
2023-01-26T08:08:59.254Z,122.75
2023-01-26T08:11:29.148Z,113.35
2023-01-26T08:13:59.264Z,80.43
2023-01-26T08:16:29.315Z,96.35
2023-01-26T08:18:59.435Z,98.65
2023-01-26T08:21:30.658Z,61.97
2023-01-26T08:24:03.088Z,60.15
2023-01-26T08:26:34.007Z,63.25
2023-01-26T08:29:04.401Z,70.18
2023-01-26T08:31:34.726Z,57.97
2023-01-26T08:34:05.583Z,50.53
2023-01-26T08:36:35.512Z,47.78
2023-01-26T08:39:06.223Z,36.72
2023-01-26T08:41:36.133Z,42.70
2023-01-26T08:44:06.251Z,53.63
2023-01-26T08:46:36.119Z,67.15
2023-01-26T08:49:07.380Z,44.03
2023-01-26T08:51:37.486Z,44.08
2023-01-26T08:54:09.798Z,32.55
2023-01-26T08:56:40.062Z,19.52
2023-01-26T08:59:10.045Z,25.52
2023-01-26T09:01:40.292Z,14.73
2023-01-26T09:04:10.198Z,18.02
2023-01-26T09:06:40.397Z,18.25
2023-01-26T09:09:14.369Z,18.02
2023-01-26T09:11:44.760Z,36.05
2023-01-26T09:14:14.648Z,85.38
2023-01-26T09:16:44.829Z,94.18
2023-01-26T09:19:14.748Z,97.32
2023-01-26T09:21:45.192Z,102.00
2023-01-26T09:24:15.100Z,170.13
2023-01-26T09:26:45.261Z,218.40
2023-01-26T09:29:15.282Z,252.45
2023-01-26T09:31:45.806Z,265.52
2023-01-26T09:34:16.247Z,295.50
2023-01-26T09:36:46.627Z,271.27
2023-01-26T09:39:16.498Z,219.98
2023-01-26T09:42:53.567Z,194.75
2023-01-26T09:45:33.561Z,137.15
2023-01-26T09:48:25.172Z,130.48
2023-01-26T09:51:24.651Z,142.25
2023-01-26T09:54:18.174Z,93.05
2023-01-26T09:56:48.716Z,196.32
2023-01-26T09:59:36.128Z,215.93
2023-01-26T10:02:30.047Z,165.55
2023-01-26T10:07:34.090Z,137.57
2023-01-26T10:10:05.801Z,143.02
2023-01-26T10:12:39.768Z,115.03
2023-01-26T10:15:30.839Z,105.65
2023-01-26T10:18:07.724Z,115.78
2023-01-26T10:20:52.355Z,145.07
2023-01-26T10:23:31.627Z,109.47
2023-01-26T10:26:22.759Z,83.47
2023-01-26T10:28:54.451Z,114.90
2023-01-26T10:31:28.973Z,110.35
2023-01-26T10:34:21.888Z,108.63
2023-01-26T10:36:52.455Z,101.90
2023-01-26T10:39:22.492Z,93.05
2023-01-26T10:42:02.716Z,95.80
2023-01-26T10:44:34.366Z,67.95
2023-01-26T10:47:24.755Z,73.50
2023-01-26T10:49:55.030Z,63.90
2023-01-26T10:52:26.792Z,61.67
2023-01-26T10:55:14.822Z,73.35
2023-01-26T10:57:45.075Z,63.40
2023-01-26T11:00:23.878Z,78.65
2023-01-26T11:02:57.082Z,74.78
2023-01-26T11:05:28.343Z,82.47
2023-01-26T11:08:04.307Z,74.75
2023-01-26T11:10:52.718Z,109.35
2023-01-26T11:13:23.856Z,74.57
2023-01-26T11:16:21.907Z,76.78
2023-01-26T11:19:21.586Z,75.55
2023-01-26T11:22:06.000Z,78.57
2023-01-26T11:24:53.714Z,65.88
2023-01-26T11:27:31.084Z,64.85
2023-01-26T11:30:21.941Z,75.72
2023-01-26T11:33:10.205Z,67.60
2023-01-26T11:35:52.153Z,78.45
2023-01-26T11:38:32.501Z,70.53
2023-01-26T11:41:12.543Z,63.90
2023-01-26T11:44:00.578Z,44.97
2023-01-26T11:46:56.320Z,60.92
2023-01-26T11:50:03.036Z,84.57
2023-01-26T11:52:53.231Z,51.05
2023-01-26T11:55:26.393Z,55.72
2023-01-26T11:58:06.589Z,55.05
2023-01-26T12:00:48.707Z,56.10
2023-01-26T12:03:32.933Z,58.53
2023-01-26T12:06:08.425Z,55.28
2023-01-26T12:08:45.480Z,58.95
2023-01-26T12:11:41.291Z,55.35
2023-01-26T12:14:46.279Z,63.05
2023-01-26T12:17:38.158Z,50.20
2023-01-26T12:20:49.423Z,61.88
2023-01-26T12:23:39.409Z,64.28
2023-01-26T12:26:16.575Z,64.10
2023-01-26T12:29:10.797Z,57.40
2023-01-26T12:31:52.778Z,56.55
2023-01-26T12:34:33.462Z,63.55
2023-01-26T12:39:58.004Z,52.05
2023-01-26T12:42:49.518Z,60.90
2023-01-26T12:45:26.979Z,39.17
2023-01-26T12:48:07.180Z,54.28
2023-01-26T12:50:53.362Z,51.03
2023-01-26T12:54:02.205Z,52.08
2023-01-26T12:56:44.856Z,52.78
2023-01-26T12:59:47.087Z,50.30
2023-01-26T13:02:30.908Z,51.50
2023-01-26T13:05:03.561Z,42.40
2023-01-26T13:07:40.356Z,47.92
2023-01-26T13:10:16.387Z,57.45
2023-01-26T13:13:27.706Z,57.30
2023-01-26T13:16:19.757Z,58.42
2023-01-26T13:18:57.077Z,58.72
2023-01-26T13:21:39.587Z,61.20
2023-01-26T13:24:19.214Z,56.13
2023-01-26T13:26:54.111Z,59.25
2023-01-26T13:29:28.530Z,48.85
2023-01-26T13:32:20.077Z,64.53
2023-01-26T13:34:56.222Z,44.85
2023-01-26T13:37:39.239Z,58.20
2023-01-26T13:40:22.518Z,46.83
2023-01-26T13:43:26.277Z,61.95
2023-01-26T13:46:22.435Z,46.72
2023-01-26T13:48:55.276Z,43.97
2023-01-26T13:51:30.013Z,41.28
2023-01-26T13:54:03.561Z,42.95
2023-01-26T13:56:37.902Z,49.80
2023-01-26T13:59:17.371Z,56.95
2023-01-26T14:01:51.073Z,62.97
2023-01-26T14:04:28.566Z,73.40
2023-01-26T14:07:04.269Z,67.03
2023-01-26T14:09:47.040Z,52.38
2023-01-26T14:12:43.914Z,50.20
2023-01-26T14:15:30.039Z,46.33
2023-01-26T14:18:03.416Z,41.03
2023-01-26T14:20:43.827Z,40.75
2023-01-26T14:23:20.184Z,67.43
2023-01-26T14:26:21.617Z,57.42
2023-01-26T14:28:51.701Z,52.38
2023-01-26T14:31:30.034Z,41.53
2023-01-26T14:34:01.369Z,50.45
2023-01-26T14:36:40.424Z,52.40
2023-01-26T14:39:28.370Z,46.28
2023-01-26T14:41:59.700Z,57.17
2023-01-26T14:44:32.312Z,61.33
2023-01-26T14:47:12.228Z,41.47
2023-01-26T14:49:52.372Z,47.85
2023-01-26T14:52:29.138Z,56.05
2023-01-26T14:55:29.503Z,36.90
2023-01-26T14:58:01.072Z,46.65
2023-01-26T15:00:40.056Z,42.92
2023-01-26T15:03:18.984Z,37.88
2023-01-26T15:05:50.602Z,54.45
2023-01-26T15:08:29.124Z,48.38
2023-01-26T15:11:23.605Z,54.40
2023-01-26T15:14:00.612Z,55.17
2023-01-26T15:16:39.214Z,54.97
2023-01-26T15:19:23.802Z,49.88
2023-01-26T15:22:00.955Z,45.70
2023-01-26T15:24:35.315Z,34.20
2023-01-26T15:27:14.880Z,38.10
2023-01-26T15:32:35.554Z,44.55
2023-01-26T15:35:19.680Z,42.88
2023-01-26T15:37:53.746Z,40.30
2023-01-26T15:40:23.809Z,47.15
2023-01-26T15:43:07.221Z,45.20
2023-01-26T15:45:37.966Z,38.20
2023-01-26T15:48:08.637Z,50.83
2023-01-26T15:50:44.848Z,34.55
2023-01-26T15:53:21.830Z,36.22
2023-01-26T15:55:57.244Z,28.35
2023-01-26T15:58:32.970Z,38.45
2023-01-26T16:01:07.899Z,35.65
2023-01-26T16:03:38.840Z,38.08
2023-01-26T16:06:18.482Z,44.47
2023-01-26T16:08:49.627Z,45.78
2023-01-26T16:11:21.833Z,42.33
2023-01-26T16:14:02.829Z,40.55
2023-01-26T16:16:35.061Z,40.78
2023-01-26T16:19:07.153Z,28.40
2023-01-26T16:21:41.282Z,54.97
2023-01-26T16:24:13.489Z,36.45
2023-01-26T16:26:43.795Z,44.67
2023-01-26T16:29:13.767Z,51.75
2023-01-26T16:31:45.459Z,32.75
2023-01-26T16:34:16.189Z,40.05
2023-01-26T16:36:46.931Z,40.95
2023-01-26T16:39:17.059Z,28.08
2023-01-26T16:41:56.885Z,32.92
2023-01-26T16:44:27.579Z,31.55
2023-01-26T16:46:58.218Z,29.48
2023-01-26T16:49:30.947Z,35.95
2023-01-26T16:52:05.869Z,44.38
2023-01-26T17:00:00.661Z,32.33
2023-01-26T17:02:39.686Z,22.30
2023-01-26T17:05:21.713Z,30.63
2023-01-26T17:07:52.454Z,47.15
2023-01-26T17:10:24.030Z,28.95
2023-01-26T17:12:55.881Z,36.70
2023-01-26T17:15:26.480Z,41.88
2023-01-26T17:17:56.712Z,41.65
2023-01-26T17:20:27.216Z,37.05
2023-01-26T17:23:06.869Z,36.80
2023-01-26T17:25:43.740Z,37.97
2023-01-26T17:28:14.166Z,37.97
2023-01-26T17:30:44.547Z,30.33
2023-01-26T17:33:15.136Z,36.38
2023-01-26T17:35:46.122Z,38.03
2023-01-26T17:38:16.928Z,28.90
2023-01-26T17:40:55.372Z,37.63
2023-01-26T17:43:26.897Z,40.72
2023-01-26T17:46:17.962Z,39.17
2023-01-26T17:48:52.343Z,30.83
2023-01-26T17:51:24.420Z,25.95
2023-01-26T17:53:55.585Z,38.38
2023-01-26T17:56:27.575Z,40.20
2023-01-26T17:58:58.332Z,36.88
2023-01-26T18:01:31.530Z,42.25
2023-01-26T18:04:03.900Z,40.95
2023-01-26T18:06:34.117Z,46.03
2023-01-26T18:09:05.519Z,27.05
2023-01-26T18:11:36.106Z,33.00
2023-01-26T18:14:06.752Z,43.97
2023-01-26T18:16:37.357Z,39.28
2023-01-26T18:19:07.489Z,39.83
2023-01-26T18:21:39.917Z,38.58
2023-01-26T18:24:10.590Z,31.83
2023-01-26T18:30:44.374Z,47.85
2023-01-26T18:33:15.019Z,50.42
2023-01-26T18:35:45.402Z,49.10
2023-01-26T18:38:15.772Z,48.65
2023-01-26T18:40:45.997Z,54.70
2023-01-26T18:43:16.305Z,33.63
2023-01-26T18:45:47.115Z,42.78
2023-01-26T18:48:18.798Z,44.70
2023-01-26T18:50:52.624Z,37.15
2023-01-26T18:53:23.425Z,46.35
2023-01-26T18:55:56.526Z,41.38
2023-01-26T18:58:26.836Z,49.42
2023-01-26T19:00:59.052Z,51.22
2023-01-26T19:03:32.170Z,44.58
2023-01-26T19:10:05.867Z,54.85
2023-01-26T19:12:35.825Z,38.25
2023-01-26T19:15:06.931Z,62.28
2023-01-26T19:17:39.820Z,44.58
2023-01-26T19:20:10.455Z,47.13
2023-01-26T19:22:40.465Z,35.63
2023-01-26T19:25:11.260Z,61.42
2023-01-26T19:27:43.368Z,44.65
2023-01-26T19:30:15.975Z,46.63
2023-01-26T19:33:06.978Z,40.40
2023-01-26T19:35:41.234Z,42.47
2023-01-26T19:38:11.333Z,70.55
2023-01-26T19:40:41.216Z,64.55
2023-01-26T19:43:11.485Z,63.22
2023-01-26T19:45:42.194Z,54.58
2023-01-26T19:48:12.492Z,31.80
2023-01-26T19:50:42.674Z,44.75
2023-01-26T19:53:16.198Z,63.05
2023-01-26T19:55:46.465Z,96.00
2023-01-26T19:58:16.661Z,76.25
2023-01-26T20:00:46.789Z,62.60
2023-01-26T20:03:16.935Z,68.28
2023-01-26T20:05:47.214Z,72.70
2023-01-26T20:08:17.143Z,57.42
2023-01-26T20:10:47.200Z,52.88
2023-01-26T20:13:17.199Z,62.67
2023-01-26T20:19:51.526Z,51.47
2023-01-26T20:22:22.087Z,82.28
2023-01-26T20:24:52.285Z,61.15
2023-01-26T20:27:22.134Z,45.40
2023-01-26T20:29:52.417Z,22.60
2023-01-26T20:32:22.591Z,21.33
2023-01-26T20:34:53.599Z,29.58
2023-01-26T20:37:25.720Z,47.67
2023-01-26T20:39:55.897Z,38.95
2023-01-26T20:42:25.844Z,25.00
2023-01-26T20:44:58.606Z,27.13
2023-01-26T20:51:32.437Z,19.73
2023-01-26T20:54:03.087Z,31.55
2023-01-26T20:56:33.435Z,20.45
2023-01-26T20:59:03.413Z,29.88
2023-01-26T21:22:01.719Z,59.22
2023-01-26T21:24:32.360Z,63.13
2023-01-26T21:27:03.859Z,83.00
2023-01-26T21:29:33.894Z,78.38
2023-01-26T21:32:06.208Z,97.28
2023-01-26T21:34:36.655Z,114.07
2023-01-26T21:37:07.579Z,121.03
2023-01-26T21:39:37.947Z,115.88
2023-01-26T21:42:08.378Z,82.22
2023-01-26T21:44:58.680Z,91.93
2023-01-26T21:47:28.899Z,65.25
2023-01-26T21:50:00.562Z,45.10
2023-01-26T21:52:48.326Z,31.77
2023-01-26T21:55:18.483Z,37.70
2023-01-26T22:00:53.221Z,40.22
2023-01-26T22:03:23.187Z,46.95
2023-01-26T22:05:54.746Z,77.13
2023-01-26T22:08:25.421Z,88.07
2023-01-26T22:10:56.672Z,86.35
2023-01-26T22:13:28.040Z,104.32
2023-01-26T22:16:04.403Z,120.75
2023-01-26T22:18:35.749Z,87.72
2023-01-26T22:21:05.948Z,102.57
2023-01-26T22:23:38.615Z,119.35
2023-01-26T22:26:11.587Z,95.57
2023-01-26T22:28:42.182Z,86.35
2023-01-26T22:31:15.998Z,91.25
2023-01-26T22:33:46.633Z,75.30
2023-01-26T22:36:21.020Z,82.97
2023-01-26T22:38:54.619Z,100.07
2023-01-26T22:41:30.263Z,85.70
2023-01-26T22:44:05.717Z,73.15
2023-01-26T22:46:38.366Z,97.38
2023-01-26T22:49:08.686Z,78.65
2023-01-26T22:51:40.885Z,78.60
2023-01-26T22:54:13.601Z,87.75
2023-01-26T22:56:43.844Z,69.97
2023-01-26T22:59:13.749Z,147.70
2023-01-26T23:01:44.210Z,134.85
2023-01-26T23:04:16.505Z,67.60
2023-01-26T23:06:47.177Z,51.75
2023-01-26T23:09:18.306Z,45.33
2023-01-26T23:12:04.519Z,28.65
2023-01-26T23:14:35.795Z,29.98
2023-01-26T23:17:06.750Z,21.25
2023-01-26T23:19:37.014Z,36.15
2023-01-26T23:22:07.271Z,17.27
2023-01-26T23:24:37.218Z,15.55
2023-01-26T23:27:08.964Z,19.95
2023-01-26T23:29:39.257Z,17.20
2023-01-26T23:32:09.443Z,17.38
2023-01-26T23:34:39.587Z,94.53
2023-01-26T23:37:10.048Z,85.53
2023-01-26T23:39:40.453Z,58.60
2023-01-26T23:42:10.539Z,36.38
2023-01-26T23:44:43.755Z,25.42
2023-01-26T23:47:17.638Z,20.80
2023-01-26T23:49:58.476Z,118.65
2023-01-26T23:53:24.951Z,134.73
2023-01-26T23:56:19.041Z,171.07
2023-01-26T23:58:50.367Z,184.82
